createdAt,value
2022-10-28T00:00:52.249Z,975.59
2022-10-28T00:01:52.651Z,975.62
2022-10-28T00:02:53.273Z,975.61
2022-10-28T00:03:53.194Z,975.59
2022-10-28T00:04:53.391Z,975.56
2022-10-28T00:05:53.720Z,975.59
2022-10-28T00:06:54.039Z,975.61
2022-10-28T00:07:54.881Z,975.63
2022-10-28T00:08:54.693Z,975.60
2022-10-28T00:09:55.052Z,975.61
2022-10-28T00:10:55.259Z,975.60
2022-10-28T00:11:55.628Z,975.63
2022-10-28T00:12:55.846Z,975.64
2022-10-28T00:13:56.164Z,975.58
2022-10-28T00:14:56.503Z,975.59
2022-10-28T00:15:56.842Z,975.60
2022-10-28T00:16:57.181Z,975.61
2022-10-28T00:17:57.419Z,975.66
2022-10-28T00:18:57.626Z,975.65
2022-10-28T00:19:57.890Z,975.64
2022-10-28T00:20:58.227Z,975.68
2022-10-28T00:21:58.537Z,975.70
2022-10-28T00:22:58.877Z,975.65
2022-10-28T00:23:59.089Z,975.69
2022-10-28T00:24:59.429Z,975.67
2022-10-28T00:25:59.757Z,975.65
2022-10-28T00:27:00.075Z,975.64
2022-10-28T00:28:00.439Z,975.61
2022-10-28T00:29:00.644Z,975.62
2022-10-28T00:30:00.946Z,975.57
2022-10-28T00:31:01.286Z,975.57
2022-10-28T00:32:01.643Z,975.56
2022-10-28T00:33:01.852Z,975.52
2022-10-28T00:34:02.225Z,975.50
2022-10-28T00:35:02.461Z,975.52
2022-10-28T00:36:04.364Z,975.51
2022-10-28T00:37:02.959Z,975.48
2022-10-28T00:38:03.294Z,975.46
2022-10-28T00:39:03.624Z,975.49
2022-10-28T00:40:03.987Z,975.44
2022-10-28T00:41:04.198Z,975.47
2022-10-28T00:42:04.562Z,975.48
2022-10-28T00:43:04.758Z,975.46
2022-10-28T00:44:05.081Z,975.43
2022-10-28T00:45:05.284Z,975.49
2022-10-28T00:46:05.586Z,975.47
2022-10-28T00:47:05.923Z,975.51
2022-10-28T00:48:06.138Z,975.52
2022-10-28T00:49:06.467Z,975.48
2022-10-28T00:50:06.801Z,975.46
2022-10-28T00:51:07.104Z,975.47
2022-10-28T02:55:51.761Z,975.38
2022-10-28T02:56:52.044Z,975.36
2022-10-28T02:57:52.539Z,975.32
2022-10-28T02:58:52.530Z,975.36
2022-10-28T02:59:52.794Z,975.31
2022-10-28T03:00:53.114Z,975.35
2022-10-28T03:01:53.435Z,975.39
2022-10-28T03:02:53.549Z,975.42
2022-10-28T03:03:53.792Z,975.34
2022-10-28T03:04:54.166Z,975.33
2022-10-28T03:05:54.414Z,975.35
2022-10-28T03:06:54.657Z,975.34
2022-10-28T03:07:55.209Z,975.32
2022-10-28T03:08:55.320Z,975.28
2022-10-28T03:09:55.592Z,975.37
2022-10-28T03:10:55.821Z,975.32
2022-10-28T03:11:57.011Z,975.31
2022-10-28T03:12:56.423Z,975.30
2022-10-28T03:13:56.641Z,975.26
2022-10-28T03:14:56.915Z,975.29
2022-10-28T03:15:57.143Z,975.30
2022-10-28T03:16:57.472Z,975.26
2022-10-28T03:17:57.700Z,975.28
2022-10-28T03:18:57.986Z,975.32
2022-10-28T03:19:58.257Z,975.34
2022-10-28T03:20:59.174Z,975.34
2022-10-28T03:21:58.707Z,975.34
2022-10-28T03:22:58.995Z,975.31
2022-10-28T03:23:59.250Z,975.32
2022-10-28T03:24:59.477Z,975.37
2022-10-28T03:25:59.725Z,975.38
2022-10-28T03:26:59.953Z,975.37
2022-10-28T03:28:00.174Z,975.36
2022-10-28T03:29:00.395Z,975.41
2022-10-28T03:30:00.719Z,975.39
2022-10-28T03:31:00.976Z,975.41
2022-10-28T03:32:01.281Z,975.43
2022-10-28T03:33:01.492Z,975.42
2022-10-28T03:34:01.831Z,975.33
2022-10-28T03:35:02.060Z,975.40
2022-10-28T03:36:02.329Z,975.36
2022-10-28T03:37:02.570Z,975.40
2022-10-28T03:38:02.788Z,975.45
2022-10-28T03:39:03.122Z,975.40
2022-10-28T03:40:03.351Z,975.47
2022-10-28T03:41:03.578Z,975.47
2022-10-28T03:42:03.895Z,975.43
2022-10-28T03:43:04.142Z,975.48
2022-10-28T03:44:04.393Z,975.47
2022-10-28T03:45:04.621Z,975.44
2022-10-28T03:46:04.951Z,975.44
2022-10-28T03:47:05.186Z,975.44
2022-10-28T03:48:05.432Z,975.50
2022-10-28T03:49:05.650Z,975.51
2022-10-28T03:50:06.002Z,975.53
2022-10-28T03:51:06.211Z,975.47
2022-10-28T03:52:06.524Z,975.52
2022-10-28T03:53:06.887Z,975.48
2022-10-28T03:54:07.128Z,975.49
2022-10-28T03:55:07.350Z,975.49
2022-10-28T03:56:07.658Z,975.48
2022-10-28T03:57:07.982Z,975.48
2022-10-28T03:58:08.291Z,975.49
2022-10-28T03:59:08.640Z,975.48
2022-10-28T04:00:08.852Z,975.50
2022-10-28T04:01:09.271Z,975.48
2022-10-28T04:02:09.597Z,975.46
2022-10-28T04:03:10.178Z,975.43
2022-10-28T04:04:09.921Z,975.37
2022-10-28T04:05:10.281Z,975.38
2022-10-28T04:06:10.508Z,975.34
2022-10-28T04:07:10.877Z,975.41
2022-10-28T04:08:11.095Z,975.40
2022-10-28T04:09:11.354Z,975.36
2022-10-28T04:10:11.581Z,975.37
2022-10-28T04:11:11.798Z,975.36
2022-10-28T04:12:12.171Z,975.36
2022-10-28T04:13:12.432Z,975.37
2022-10-28T04:14:12.695Z,975.35
2022-10-28T04:15:12.953Z,975.32
2022-10-28T04:16:13.181Z,975.32
2022-10-28T04:17:13.411Z,975.35
2022-10-28T04:18:13.743Z,975.32
2022-10-28T04:19:14.109Z,975.31
2022-10-28T04:20:14.486Z,975.35
2022-10-28T04:21:14.729Z,975.37
2022-10-28T04:22:14.928Z,975.34
2022-10-28T04:23:15.261Z,975.35
2022-10-28T04:24:15.485Z,975.40
2022-10-28T04:26:16.031Z,975.44
2022-10-28T04:27:16.359Z,975.45
2022-10-28T04:28:16.583Z,975.41
2022-10-28T04:29:16.964Z,975.41
2022-10-28T04:30:17.200Z,975.43
2022-10-28T04:31:17.422Z,975.44
2022-10-28T04:32:17.731Z,975.38
2022-10-28T04:33:18.075Z,975.38
2022-10-28T04:34:18.319Z,975.32
2022-10-28T04:35:18.542Z,975.33
2022-10-28T04:36:18.870Z,975.31
2022-10-28T04:37:20.285Z,975.31
2022-10-28T04:38:19.626Z,975.33
2022-10-28T04:39:19.771Z,975.32
2022-10-28T04:40:20.111Z,975.34
2022-10-28T04:41:20.343Z,975.35
2022-10-28T04:42:20.566Z,975.36
2022-10-28T04:43:20.818Z,975.34
2022-10-28T04:44:21.043Z,975.35
2022-10-28T04:45:21.260Z,975.32
2022-10-28T04:46:21.588Z,975.31
2022-10-28T04:47:21.816Z,975.33
2022-10-28T04:48:22.064Z,975.28
2022-10-28T04:49:22.320Z,975.28
2022-10-28T04:50:22.531Z,975.29
2022-10-28T04:51:22.854Z,975.28
2022-10-28T04:52:23.194Z,975.29
2022-10-28T04:53:23.428Z,975.29
2022-10-28T04:54:23.972Z,975.28
2022-10-28T04:55:24.082Z,975.22
2022-10-28T04:56:24.304Z,975.25
2022-10-28T04:57:24.665Z,975.27
2022-10-28T04:58:24.984Z,975.26
2022-10-28T04:59:25.351Z,975.25
2022-10-28T05:00:25.597Z,975.24
2022-10-28T05:01:25.937Z,975.26
2022-10-28T05:02:26.174Z,975.25
2022-10-28T05:03:26.452Z,975.30
2022-10-28T05:04:26.680Z,975.31
2022-10-28T05:05:26.941Z,975.33
2022-10-28T05:06:27.169Z,975.29
2022-10-28T05:07:27.445Z,975.28
2022-10-28T05:08:27.663Z,975.32
2022-10-28T05:09:27.885Z,975.33
2022-10-28T05:10:28.152Z,975.35
2022-10-28T05:11:28.377Z,975.35
2022-10-28T05:12:28.750Z,975.39
2022-10-28T05:13:28.971Z,975.41
2022-10-28T05:14:29.315Z,975.40
2022-10-28T05:15:29.552Z,975.43
2022-10-28T05:16:29.775Z,975.45
2022-10-28T05:17:30.024Z,975.40
2022-10-28T05:18:30.236Z,975.39
2022-10-28T05:19:30.586Z,975.42
2022-10-28T05:20:30.802Z,975.34
2022-10-28T05:21:31.157Z,975.34
2022-10-28T05:22:31.393Z,975.34
2022-10-28T05:23:31.939Z,975.33
2022-10-28T05:24:31.940Z,975.29
2022-10-28T05:25:32.265Z,975.28
2022-10-28T05:26:32.586Z,975.25
2022-10-28T05:27:32.906Z,975.29
2022-10-28T05:28:33.256Z,975.26
2022-10-28T05:29:33.569Z,975.23
2022-10-28T05:30:33.777Z,975.24
2022-10-28T05:31:34.156Z,975.20
2022-10-28T05:32:34.385Z,975.23
2022-10-28T05:33:34.600Z,975.20
2022-10-28T05:34:34.959Z,975.20
2022-10-28T05:35:35.210Z,975.20
2022-10-28T05:36:35.439Z,975.18
2022-10-28T05:37:35.674Z,975.19
2022-10-28T05:38:35.899Z,975.20
2022-10-28T05:39:36.116Z,975.20
2022-10-28T05:40:36.372Z,975.25
2022-10-28T05:41:38.883Z,975.23
2022-10-28T05:42:36.926Z,975.29
2022-10-28T05:43:37.260Z,975.25
2022-10-28T05:44:37.483Z,975.23
2022-10-28T05:45:37.850Z,975.23
2022-10-28T05:46:38.065Z,975.21
2022-10-28T05:47:40.053Z,975.29
2022-10-28T05:48:38.664Z,975.30
2022-10-28T05:49:38.984Z,975.31
2022-10-28T05:50:39.315Z,975.35
2022-10-28T05:51:39.545Z,975.39
2022-10-28T05:52:39.908Z,975.38
2022-10-28T05:53:40.130Z,975.39
2022-10-28T05:54:40.358Z,975.37
2022-10-28T05:55:45.133Z,975.37
2022-10-28T05:56:42.019Z,975.39
2022-10-28T05:57:41.330Z,975.40
2022-10-28T05:58:41.594Z,975.42
2022-10-28T05:59:41.833Z,975.43
2022-10-28T06:00:42.149Z,975.39
2022-10-28T06:01:42.451Z,975.38
2022-10-28T06:02:42.617Z,975.32
2022-10-28T06:03:42.943Z,975.35
2022-10-28T06:04:43.126Z,975.35
2022-10-28T06:05:43.344Z,975.35
2022-10-28T06:06:43.578Z,975.36
2022-10-28T06:07:43.805Z,975.29
2022-10-28T06:08:44.075Z,975.31
2022-10-28T06:09:44.324Z,975.26
2022-10-28T06:10:44.571Z,975.19
2022-10-28T06:11:43.294Z,975.20
2022-10-28T06:12:43.539Z,975.22
2022-10-28T06:13:43.776Z,975.18
2022-10-28T06:14:44.105Z,975.20
2022-10-28T06:15:44.335Z,975.21
2022-10-28T06:16:44.579Z,975.22
2022-10-28T06:17:44.817Z,975.24
2022-10-28T06:18:45.066Z,975.27
2022-10-28T06:19:45.347Z,975.29
2022-10-28T06:20:45.585Z,975.32
2022-10-28T06:21:45.833Z,975.40
2022-10-28T06:22:46.082Z,975.38
2022-10-28T06:23:46.323Z,975.52
2022-10-28T06:24:46.668Z,975.58
2022-10-28T06:25:46.876Z,975.67
2022-10-28T06:26:47.017Z,975.71
2022-10-28T06:27:47.353Z,975.78
2022-10-28T06:28:47.577Z,975.79
2022-10-28T06:29:47.951Z,975.80
2022-10-28T06:30:48.196Z,975.79
2022-10-28T06:31:48.445Z,975.74
2022-10-28T06:32:48.673Z,975.73
2022-10-28T06:33:49.007Z,975.72
2022-10-28T06:34:49.274Z,975.78
2022-10-28T06:35:49.502Z,975.78
2022-10-28T06:36:49.832Z,975.82
2022-10-28T06:37:50.390Z,975.83
2022-10-28T06:38:50.392Z,975.84
2022-10-28T06:39:50.650Z,975.77
2022-10-28T06:40:52.573Z,975.70
2022-10-28T06:41:51.215Z,975.73
2022-10-28T06:42:51.693Z,975.67
2022-10-28T06:43:51.748Z,975.65
2022-10-28T06:44:51.985Z,975.63
2022-10-28T06:45:52.228Z,975.61
2022-10-28T06:46:54.060Z,975.69
2022-10-28T06:47:54.299Z,975.66
2022-10-28T06:48:54.566Z,975.64
2022-10-28T06:49:54.798Z,975.63
2022-10-28T06:50:55.017Z,975.60
2022-10-28T06:51:55.263Z,975.55
2022-10-28T06:52:55.492Z,975.53
2022-10-28T06:53:55.850Z,975.53
2022-10-28T06:54:56.079Z,975.59
2022-10-28T06:55:56.314Z,975.62
2022-10-28T06:56:56.536Z,975.61
2022-10-28T06:57:57.235Z,975.70
2022-10-28T06:58:57.047Z,975.80
2022-10-28T06:59:57.262Z,975.85
2022-10-28T07:00:57.592Z,975.88
2022-10-28T07:01:57.894Z,975.89
2022-10-28T07:02:58.524Z,975.86
2022-10-28T07:03:58.525Z,975.82
2022-10-28T07:04:58.745Z,975.79
2022-10-28T07:05:58.984Z,975.79
2022-10-28T07:06:59.203Z,975.79
2022-10-28T07:07:59.434Z,975.87
2022-10-28T07:08:59.715Z,975.83
2022-10-28T07:09:59.942Z,975.86
2022-10-28T07:11:00.182Z,975.83
2022-10-28T07:12:04.913Z,975.77
2022-10-28T07:13:01.744Z,975.77
2022-10-28T07:14:01.046Z,975.73
2022-10-28T07:15:01.290Z,975.81
2022-10-28T07:16:01.520Z,975.80
2022-10-28T07:17:01.732Z,975.82
2022-10-28T07:18:02.077Z,975.82
2022-10-28T07:19:02.301Z,975.86
2022-10-28T07:20:02.670Z,975.88
2022-10-28T07:21:02.905Z,975.90
2022-10-28T07:22:03.128Z,975.87
2022-10-28T07:23:03.356Z,975.85
2022-10-28T07:24:03.701Z,975.90
2022-10-28T07:25:03.976Z,975.89
2022-10-28T07:26:04.227Z,975.93
2022-10-28T07:27:04.537Z,975.96
2022-10-28T07:28:04.867Z,975.97
2022-10-28T07:29:05.197Z,975.93
2022-10-28T07:30:05.612Z,975.94
2022-10-28T07:31:05.903Z,975.94
2022-10-28T07:32:06.166Z,975.92
2022-10-28T07:33:06.378Z,975.96
2022-10-28T07:34:06.709Z,976.03
2022-10-28T07:35:06.930Z,976.02
2022-10-28T07:36:07.310Z,976.03
2022-10-28T07:37:07.559Z,976.04
2022-10-28T07:38:07.784Z,976.04
2022-10-28T07:39:08.042Z,976.07
2022-10-28T07:40:08.260Z,976.05
2022-10-28T07:41:08.491Z,976.10
2022-10-28T07:42:08.855Z,976.08
2022-10-28T07:43:09.094Z,976.12
2022-10-28T07:44:09.427Z,976.04
2022-10-28T07:45:09.801Z,976.01
2022-10-28T07:46:10.028Z,976.03
2022-10-28T07:47:10.236Z,976.00
2022-10-28T07:48:10.570Z,976.00
2022-10-28T07:49:10.798Z,976.01
2022-10-28T07:50:11.168Z,975.95
2022-10-28T07:51:11.371Z,975.98
2022-10-28T07:52:11.683Z,975.93
2022-10-28T07:53:12.057Z,975.96
2022-10-28T07:54:12.319Z,975.97
2022-10-28T07:55:12.688Z,976.01
2022-10-28T07:56:12.930Z,975.98
2022-10-28T07:57:13.149Z,976.01
2022-10-28T07:58:13.528Z,975.97
2022-10-28T07:59:13.778Z,975.98
2022-10-28T08:00:13.984Z,976.02
2022-10-28T08:01:14.471Z,976.02
2022-10-28T08:02:14.651Z,976.05
2022-10-28T08:03:14.942Z,976.08
2022-10-28T08:04:15.189Z,976.05
2022-10-28T08:05:15.403Z,975.99
2022-10-28T08:06:15.728Z,975.90
2022-10-28T08:07:16.036Z,975.86
2022-10-28T08:08:16.287Z,975.88
2022-10-28T08:09:16.505Z,975.89
2022-10-28T08:10:16.901Z,975.93
2022-10-28T08:11:17.138Z,975.94
2022-10-28T08:12:17.358Z,975.91
2022-10-28T08:13:17.689Z,975.88
2022-10-28T08:14:18.017Z,975.88
2022-10-28T08:15:18.393Z,975.88
2022-10-28T08:16:18.616Z,975.84
2022-10-28T08:17:18.944Z,975.86
2022-10-28T08:18:19.321Z,975.88
2022-10-28T08:19:19.523Z,975.82
2022-10-28T08:20:19.896Z,975.85
2022-10-28T08:21:20.118Z,975.83
2022-10-28T08:22:20.447Z,975.87
2022-10-28T08:23:20.778Z,975.91
2022-10-28T08:24:21.104Z,975.87
2022-10-28T08:25:21.499Z,975.83
2022-10-28T08:26:21.714Z,975.84
2022-10-28T08:27:22.052Z,975.85
2022-10-28T08:28:22.392Z,975.86
2022-10-28T08:29:26.256Z,975.87
2022-10-28T08:30:23.968Z,975.81
2022-10-28T08:31:23.236Z,975.86
2022-10-28T08:32:23.561Z,975.93
2022-10-28T08:33:23.828Z,975.98
2022-10-28T08:34:24.071Z,975.98
2022-10-28T08:35:24.288Z,976.06
2022-10-28T08:36:25.470Z,976.08
2022-10-28T08:37:24.908Z,976.12
2022-10-28T08:38:25.186Z,976.13
2022-10-28T08:39:25.498Z,976.15
2022-10-28T08:40:25.753Z,976.14
2022-10-28T08:41:25.966Z,976.07
2022-10-28T08:42:26.302Z,976.08
2022-10-28T08:43:45.953Z,976.08
2022-10-28T08:44:27.871Z,976.10
2022-10-28T08:45:27.143Z,976.16
2022-10-28T08:46:27.501Z,976.18
2022-10-28T08:47:27.761Z,976.16
2022-10-28T08:48:27.996Z,976.18
2022-10-28T08:49:28.216Z,976.12
2022-10-28T08:50:28.556Z,976.12
2022-10-28T08:51:28.889Z,976.09
2022-10-28T08:52:29.254Z,976.18
2022-10-28T08:53:29.478Z,976.16
2022-10-28T08:54:29.811Z,976.11
2022-10-28T08:55:30.025Z,976.08
2022-10-28T08:56:30.414Z,976.04
2022-10-28T08:57:30.631Z,976.00
2022-10-28T08:58:30.970Z,976.00
2022-10-28T08:59:31.195Z,975.99
2022-10-28T09:00:31.585Z,976.04
2022-10-28T09:01:31.996Z,976.06
2022-10-28T09:02:32.197Z,976.05
2022-10-28T09:03:34.369Z,976.04
2022-10-28T09:04:32.696Z,976.07
2022-10-28T09:05:32.916Z,976.05
2022-10-28T09:06:33.294Z,976.03
2022-10-28T09:07:33.510Z,976.07
2022-10-28T09:08:33.773Z,975.98
2022-10-28T09:09:34.009Z,975.98
2022-10-28T09:10:34.232Z,975.94
2022-10-28T09:11:34.488Z,975.94
2022-10-28T09:12:34.713Z,975.92
2022-10-28T09:13:34.932Z,975.92
2022-10-28T09:14:35.275Z,975.97
2022-10-28T09:15:35.578Z,975.92
2022-10-28T09:16:35.856Z,975.97
2022-10-28T09:17:36.069Z,975.99
2022-10-28T09:18:40.601Z,976.02
2022-10-28T09:19:36.621Z,976.00
2022-10-28T09:20:36.950Z,975.93
2022-10-28T09:21:37.264Z,975.92
2022-10-28T09:22:37.497Z,975.98
2022-10-28T09:23:37.709Z,976.05
2022-10-28T09:24:37.952Z,976.05
2022-10-28T09:25:38.161Z,975.99
2022-10-28T09:26:38.548Z,975.99
2022-10-28T09:27:38.775Z,976.02
2022-10-28T09:28:38.980Z,976.00
2022-10-28T09:29:41.918Z,976.02
2022-10-28T09:30:40.572Z,976.03
2022-10-28T09:31:39.877Z,976.04
2022-10-28T09:32:40.103Z,975.99
2022-10-28T09:33:40.438Z,976.04
2022-10-28T09:34:40.848Z,976.01
2022-10-28T09:35:41.088Z,976.02
2022-10-28T09:36:41.299Z,976.06
2022-10-28T09:37:41.573Z,976.08
2022-10-28T09:38:41.771Z,976.03
2022-10-28T09:39:42.126Z,976.05
2022-10-28T09:40:42.356Z,976.04
2022-10-28T09:41:42.710Z,976.03
2022-10-28T09:42:44.694Z,976.04
2022-10-28T09:43:43.237Z,976.03
2022-10-28T09:44:43.655Z,976.04
2022-10-28T09:45:43.895Z,976.03
2022-10-28T09:46:44.082Z,976.00
2022-10-28T09:47:44.413Z,976.01
2022-10-28T09:48:44.715Z,976.03
2022-10-28T09:49:45.078Z,976.00
2022-10-28T09:50:45.307Z,975.98
2022-10-28T09:51:45.517Z,975.97
2022-10-28T09:52:45.870Z,975.95
2022-10-28T09:53:46.078Z,975.92
2022-10-28T09:54:46.396Z,975.91
2022-10-28T09:55:46.708Z,975.93
2022-10-28T09:56:47.040Z,975.86
2022-10-28T09:57:47.393Z,975.89
2022-10-28T09:58:47.596Z,975.87
2022-10-28T09:59:47.939Z,975.85
2022-10-28T10:00:48.254Z,975.88
2022-10-28T10:01:48.647Z,975.84
2022-10-28T10:02:48.955Z,975.88
2022-10-28T10:03:49.180Z,975.83
2022-10-28T10:04:49.426Z,975.86
2022-10-28T10:05:49.727Z,975.89
2022-10-28T10:06:50.028Z,975.90
2022-10-28T10:07:50.417Z,975.98
2022-10-28T10:08:50.707Z,975.95
2022-10-28T10:09:50.974Z,976.01
2022-10-28T10:10:51.218Z,975.98
2022-10-28T10:11:51.542Z,975.95
2022-10-28T10:12:52.517Z,975.97
2022-10-28T10:13:52.204Z,975.95
2022-10-28T10:14:54.333Z,975.95
2022-10-28T10:15:52.777Z,975.93
2022-10-28T10:16:52.969Z,975.96
2022-10-28T10:17:53.278Z,975.98
2022-10-28T10:18:53.683Z,975.97
2022-10-28T10:19:53.875Z,975.94
2022-10-28T10:20:54.193Z,975.96
2022-10-28T10:21:54.510Z,975.94
2022-10-28T10:22:55.239Z,975.95
2022-10-28T10:23:55.166Z,975.92
2022-10-28T10:24:55.362Z,975.96
2022-10-28T10:25:55.695Z,975.99
2022-10-28T10:26:56.038Z,975.88
2022-10-28T10:27:56.680Z,975.93
2022-10-28T10:28:56.668Z,975.99
2022-10-28T10:29:57.029Z,976.00
2022-10-28T10:30:57.240Z,975.95
2022-10-28T10:31:57.568Z,975.94
2022-10-28T10:32:57.887Z,975.95
2022-10-28T10:33:58.215Z,975.95
2022-10-28T10:34:58.557Z,975.94
2022-10-28T10:36:00.274Z,975.93
2022-10-28T10:36:59.120Z,975.94
2022-10-28T10:37:59.383Z,975.94
2022-10-28T10:38:59.694Z,975.91
2022-10-28T10:40:00.029Z,975.94
2022-10-28T10:41:00.269Z,975.97
2022-10-28T10:42:00.486Z,975.96
2022-10-28T10:43:12.945Z,975.92
2022-10-28T10:44:02.203Z,975.94
2022-10-28T10:45:01.390Z,975.91
2022-10-28T10:46:01.649Z,975.92
2022-10-28T10:47:05.877Z,975.88
2022-10-28T10:48:02.159Z,975.94
2022-10-28T10:49:03.371Z,975.89
2022-10-28T10:50:02.772Z,975.86
2022-10-28T10:51:03.089Z,975.97
2022-10-28T10:52:03.420Z,975.92
2022-10-28T10:53:03.758Z,975.89
2022-10-28T10:54:04.089Z,975.97
2022-10-28T10:55:04.466Z,975.89
2022-10-28T10:56:04.715Z,975.92
2022-10-28T10:57:04.969Z,975.89
2022-10-28T10:58:05.181Z,975.86
2022-10-28T10:59:05.529Z,975.75
2022-10-28T11:00:05.751Z,975.79
2022-10-28T11:01:06.092Z,975.78
2022-10-28T11:02:06.526Z,975.79
2022-10-28T11:03:06.764Z,975.81
2022-10-28T11:04:07.056Z,975.79
2022-10-28T11:05:07.262Z,975.74
2022-10-28T11:06:24.409Z,975.73
2022-10-28T11:07:08.906Z,975.65
2022-10-28T11:08:09.020Z,975.64
2022-10-28T11:09:08.630Z,975.64
2022-10-28T11:10:08.843Z,975.67
2022-10-28T11:11:09.153Z,975.64
2022-10-28T11:12:09.471Z,975.60
2022-10-28T11:13:09.770Z,975.62
2022-10-28T11:14:10.152Z,975.59
2022-10-28T11:15:10.341Z,975.56
2022-10-28T11:16:10.662Z,975.53
2022-10-28T11:17:10.970Z,975.54
2022-10-28T11:18:11.292Z,975.53
2022-10-28T11:19:11.657Z,975.50
2022-10-28T11:20:11.875Z,975.51
2022-10-28T11:21:12.324Z,975.46
2022-10-28T11:22:12.464Z,975.45
2022-10-28T11:23:12.765Z,975.42
2022-10-28T11:24:13.060Z,975.40
2022-10-28T11:25:13.417Z,975.39
2022-10-28T11:26:13.605Z,975.42
2022-10-28T11:27:13.955Z,975.39
2022-10-28T11:28:14.153Z,975.38
2022-10-28T11:29:14.506Z,975.41
2022-10-28T11:30:14.715Z,975.40
2022-10-28T11:31:15.039Z,975.40
2022-10-28T11:32:15.378Z,975.39
2022-10-28T11:33:29.518Z,975.41
2022-10-28T11:34:16.885Z,975.34
2022-10-28T11:35:16.127Z,975.30
2022-10-28T11:36:16.467Z,975.26
2022-10-28T11:37:16.810Z,975.30
2022-10-28T11:38:17.008Z,975.29
2022-10-28T11:39:17.323Z,975.26
2022-10-28T11:40:17.559Z,975.28
2022-10-28T11:41:17.882Z,975.26
2022-10-28T11:42:18.066Z,975.24
2022-10-28T11:43:18.383Z,975.13
2022-10-28T11:44:18.698Z,975.26
2022-10-28T11:45:19.022Z,975.19
2022-10-28T11:46:19.363Z,975.21
2022-10-28T11:47:19.671Z,975.18
2022-10-28T11:48:19.984Z,975.14
2022-10-28T11:49:20.327Z,975.13
2022-10-28T11:50:20.508Z,975.11
2022-10-28T11:51:20.795Z,975.09
2022-10-28T11:52:21.078Z,975.05
2022-10-28T11:53:25.180Z,975.03
2022-10-28T11:54:21.678Z,975.03
2022-10-28T11:55:22.033Z,975.01
2022-10-28T11:56:22.226Z,975.07
2022-10-28T11:57:22.539Z,975.04
2022-10-28T11:58:22.885Z,975.02
2022-10-28T11:59:23.210Z,975.02
2022-10-28T12:00:23.539Z,975.06
2022-10-28T12:01:23.948Z,975.05
2022-10-28T12:02:24.283Z,975.03
2022-10-28T12:03:24.494Z,975.02
2022-10-28T12:04:24.703Z,974.99
2022-10-28T12:05:25.072Z,974.97
2022-10-28T12:06:25.282Z,974.93
2022-10-28T12:07:25.600Z,974.90
2022-10-28T12:08:25.913Z,974.88
2022-10-28T12:09:26.217Z,974.85
2022-10-28T12:10:26.541Z,974.84
2022-10-28T12:11:26.844Z,974.81
2022-10-28T12:12:27.173Z,974.83
2022-10-28T12:13:27.472Z,974.78
2022-10-28T12:14:27.761Z,974.76
2022-10-28T12:15:28.053Z,974.72
2022-10-28T12:16:28.368Z,974.69
2022-10-28T12:17:28.713Z,974.72
2022-10-28T12:18:28.940Z,974.66
2022-10-28T12:19:29.253Z,974.69
2022-10-28T12:20:29.561Z,974.65
2022-10-28T12:21:29.917Z,974.66
2022-10-28T12:22:30.139Z,974.62
2022-10-28T12:23:30.472Z,974.64
2022-10-28T12:24:30.725Z,974.62
2022-10-28T12:25:30.937Z,974.68
2022-10-28T12:26:31.253Z,974.66
2022-10-28T12:27:31.556Z,974.69
2022-10-28T12:28:31.910Z,974.70
2022-10-28T12:29:32.258Z,974.71
2022-10-28T12:30:32.500Z,974.66
2022-10-28T12:31:32.726Z,974.64
2022-10-28T12:32:33.053Z,974.63
2022-10-28T12:33:33.382Z,974.63
2022-10-28T12:34:33.780Z,974.65
2022-10-28T12:35:34.019Z,974.64
2022-10-28T12:36:34.383Z,974.57
2022-10-28T12:37:34.608Z,974.57
2022-10-28T12:38:34.934Z,974.56
2022-10-28T12:39:35.258Z,974.58
2022-10-28T12:40:35.635Z,974.58
2022-10-28T12:41:35.873Z,974.57
2022-10-28T12:42:36.124Z,974.47
2022-10-28T12:43:36.359Z,974.42
2022-10-28T12:44:36.696Z,974.37
2022-10-28T12:45:37.010Z,974.41
2022-10-28T12:46:37.359Z,974.42
2022-10-28T12:47:40.534Z,974.36
2022-10-28T12:48:38.853Z,974.32
2022-10-28T12:49:38.138Z,974.32
2022-10-28T12:50:38.438Z,974.30
2022-10-28T12:51:38.720Z,974.37
2022-10-28T12:52:39.003Z,974.30
2022-10-28T12:53:39.307Z,974.30
2022-10-28T12:54:39.679Z,974.27
2022-10-28T12:55:39.870Z,974.31
2022-10-28T12:56:40.187Z,974.31
2022-10-28T12:57:40.560Z,974.28
2022-10-28T12:58:40.735Z,974.30
2022-10-28T12:59:41.033Z,974.22
2022-10-28T13:00:41.338Z,974.25
2022-10-28T13:01:45.964Z,974.31
2022-10-28T13:02:41.949Z,974.31
2022-10-28T13:03:42.243Z,974.33
2022-10-28T13:04:42.541Z,974.34
2022-10-28T13:05:42.889Z,974.28
2022-10-28T13:06:43.110Z,974.28
2022-10-28T13:07:43.412Z,974.25
2022-10-28T13:08:43.868Z,974.30
2022-10-28T13:09:43.954Z,974.29
2022-10-28T13:10:44.279Z,974.32
2022-10-28T13:11:44.591Z,974.30
2022-10-28T13:12:44.890Z,974.26
2022-10-28T13:13:45.315Z,974.36
2022-10-28T13:14:45.527Z,974.35
2022-10-28T13:15:45.824Z,974.38
2022-10-28T13:16:46.140Z,974.33
2022-10-28T13:17:46.438Z,974.27
2022-10-28T13:18:46.781Z,974.27
2022-10-28T13:19:47.102Z,974.26
2022-10-28T13:20:47.415Z,974.24
2022-10-28T13:21:47.758Z,974.27
2022-10-28T13:22:47.951Z,974.25
2022-10-28T13:23:48.284Z,974.28
2022-10-28T13:24:48.505Z,974.21
2022-10-28T13:25:48.781Z,974.18
2022-10-28T13:26:49.172Z,974.16
2022-10-28T13:27:49.327Z,974.18
2022-10-28T13:28:49.631Z,974.08
2022-10-28T13:29:51.778Z,974.07
2022-10-28T13:30:50.167Z,974.14
2022-10-28T13:31:50.460Z,974.20
2022-10-28T13:32:50.770Z,974.23
2022-10-28T13:33:51.157Z,974.21
2022-10-28T13:34:51.356Z,974.18
2022-10-28T13:35:51.673Z,974.21
2022-10-28T13:36:53.487Z,974.18
2022-10-28T13:37:52.690Z,974.21
2022-10-28T13:38:52.577Z,974.25
2022-10-28T13:39:52.886Z,974.24
2022-10-28T13:40:53.259Z,974.21
2022-10-28T13:41:53.474Z,974.19
2022-10-28T13:42:54.172Z,974.24
2022-10-28T13:43:54.042Z,974.21
2022-10-28T13:44:54.342Z,974.26
2022-10-28T13:45:56.444Z,974.26
2022-10-28T13:46:54.972Z,974.31
2022-10-28T13:47:55.268Z,974.26
2022-10-28T13:48:55.633Z,974.24
2022-10-28T13:49:55.852Z,974.26
2022-10-28T13:50:56.164Z,974.29
2022-10-28T13:51:56.457Z,974.24
2022-10-28T13:52:56.960Z,974.21
2022-10-28T13:53:57.046Z,974.24
2022-10-28T13:54:57.350Z,974.25
2022-10-28T13:55:57.660Z,974.22
2022-10-28T13:56:58.005Z,974.23
2022-10-28T13:57:58.201Z,974.19
2022-10-28T13:58:58.547Z,974.18
2022-10-28T13:59:58.838Z,974.18
2022-10-28T14:00:59.153Z,974.21
2022-10-28T14:02:07.733Z,974.22
2022-10-28T14:03:01.340Z,974.22
2022-10-28T14:04:00.071Z,974.17
2022-10-28T14:05:00.415Z,974.19
2022-10-28T14:06:00.866Z,974.20
2022-10-28T14:07:00.989Z,974.22
2022-10-28T14:08:01.286Z,974.26
2022-10-28T14:09:01.576Z,974.25
2022-10-28T14:10:01.886Z,974.24
2022-10-28T14:11:02.213Z,974.28
2022-10-28T14:12:02.516Z,974.27
2022-10-28T14:13:02.872Z,974.31
2022-10-28T14:14:03.114Z,974.27
2022-10-28T14:15:03.586Z,974.25
2022-10-28T14:16:03.693Z,974.28
2022-10-28T14:17:03.998Z,974.32
2022-10-28T14:18:15.720Z,974.36
2022-10-28T14:19:09.706Z,974.38
2022-10-28T14:20:04.866Z,974.38
2022-10-28T14:21:05.188Z,974.34
2022-10-28T14:22:05.560Z,974.35
2022-10-28T14:23:05.820Z,974.36
2022-10-28T14:24:06.134Z,974.33
2022-10-28T14:25:06.433Z,974.33
2022-10-28T14:26:06.722Z,974.34
2022-10-28T14:27:06.994Z,974.34
2022-10-28T14:28:07.302Z,974.32
2022-10-28T14:29:07.692Z,974.32
2022-10-28T14:30:07.915Z,974.34
2022-10-28T14:31:08.290Z,974.36
2022-10-28T14:32:08.476Z,974.30
2022-10-28T14:33:08.810Z,974.31
2022-10-28T14:34:09.118Z,974.32
2022-10-28T14:35:09.431Z,974.27
2022-10-28T14:36:09.781Z,974.35
2022-10-28T14:37:09.949Z,974.31